KSLI

Los Alamitos AAF Airport

Los Alamitos, California, USA
TAF KSLI 182102Z 1821/2003 23012KT 9999 BKN100 QNH2997INS BECMG 1902/1903 22009KT 9999 FEW250 QNH2990INS BECMG 1904/1905 VRB06KT 4800 BR BKN010 QNH2995INS BECMG 1915/1916 21009KT 9999 NSW SCT010 QNH3000INS BECMG 1922/1923 22012KT 9999 SCT150 QNH2990INS TX29/1822Z TN20/1913Z
Issued Valid From Valid To
Jul-18 @ 21:02 UTC
(an hour ago)
Jul-18 @ 21:00 UTC
(an hour ago)
Jul-20 @ 03:00 UTC
(-1 days ago)
Jul-18 @ 21:00 to Jul-19 @ 02:00
TAF KSLI 182102Z 1821/2003 23012KT 9999 BKN100 QNH2997INS
Wind Visibility Clouds Readings
230° at 12 knots Greater than 6 miles
  • Broken at 10,000' AGL
Altimeter 29.97" Hg
Pressure 1015 hPa
Becoming Jul-19 @ 02:00 to Jul-19 @ 04:00
BECMG 1902/1903 22009KT 9999 FEW250 QNH2990INS
Wind Visibility Clouds Readings
220° at 9 knots Greater than 6 miles
  • Few at 25,000' AGL
Altimeter 29.91" Hg
Pressure 1013 hPa
Becoming Jul-19 @ 04:00 to Jul-19 @ 15:00
BECMG 1904/1905 VRB06KT 4800 BR BKN010 QNH2995INS
Wind Visibility Clouds Conditions Readings
Variable at 6 knots 21/98 miles
  • Broken at 1,000' AGL
  • Mist
Altimeter 29.94" Hg
Pressure 1014 hPa
Becoming Jul-19 @ 15:00 to Jul-19 @ 22:00
BECMG 1915/1916 21009KT 9999 NSW SCT010 QNH3000INS
Wind Visibility Clouds Conditions Readings
210° at 9 knots Greater than 6 miles
  • Scattered at 1,000' AGL
Altimeter 30" Hg
Pressure 1016 hPa
Becoming Jul-19 @ 22:00 to Jul-20 @ 03:00
BECMG 1922/1923 22012KT 9999 SCT150 QNH2990INS TX29/1822Z TN20/1913Z
Wind Visibility Clouds Conditions Readings
220° at 12 knots Greater than 6 miles
  • Scattered at 15,000' AGL
Altimeter 29.91" Hg
Pressure 1013 hPa
TAF KSLI 182102Z 1821/2003 23012KT 9999 BKN100 QNH2997INS BECMG 1902/1903 22009KT 9999 FEW250 QNH2990INS BECMG 1904/1905 VRB06KT 4800 BR BKN010 QNH2995INS BECMG 1915/1916 21009KT 9999 NSW SCT010 QNH3000INS BECMG 1922/1923 22012KT 9999 SCT150 QNH2990INS TX29/1822Z TN20/1913Z
Issued Jul-18 @ 21:02 UTC
(an hour ago)
Valid From Jul-18 @ 21:00 UTC
(an hour ago)
Valid To Jul-20 @ 03:00 UTC
(-1 days ago)
Jul-18 @ 21:00 - Jul-19 @ 02:00
Wind Visibility
230° at 12 knots Greater than 6 miles
Clouds
  • Broken at 10,000' AGL
Becoming Jul-19 @ 02:00 - Jul-19 @ 04:00
Wind Visibility
220° at 9 knots Greater than 6 miles
Clouds
  • Few at 25,000' AGL
Becoming Jul-19 @ 04:00 - Jul-19 @ 15:00
Wind Visibility
Variable at 6 knots 21/98 miles
Clouds
  • Broken at 1,000' AGL
Conditions
  • Mist
Becoming Jul-19 @ 15:00 - Jul-19 @ 22:00
Wind Visibility
210° at 9 knots Greater than 6 miles
Clouds
  • Scattered at 1,000' AGL
Conditions
Becoming Jul-19 @ 22:00 - Jul-20 @ 03:00
Wind Visibility
220° at 12 knots Greater than 6 miles
Clouds
  • Scattered at 15,000' AGL
Conditions